sensor_id;sensor_type;location;lat;lon;timestamp;pressure;altitude;pressure_sealevel;temperature;humidity
64886;BME280;51514;52.206;5.114;2023-08-30T00:00:07;100895.19;;;22.85;58.60
64886;BME280;51514;52.206;5.114;2023-08-30T00:02:32;100890.75;;;22.84;58.63
64886;BME280;51514;52.206;5.114;2023-08-30T00:05:00;100884.66;;;22.82;58.71
64886;BME280;51514;52.206;5.114;2023-08-30T00:07:26;100889.06;;;22.83;58.57
64886;BME280;51514;52.206;5.114;2023-08-30T00:09:51;100881.66;;;22.84;58.68
64886;BME280;51514;52.206;5.114;2023-08-30T00:12:17;100881.91;;;22.82;58.61
64886;BME280;51514;52.206;5.114;2023-08-30T00:14:42;100877.50;;;22.81;58.91
64886;BME280;51514;52.206;5.114;2023-08-30T00:17:07;100874.75;;;22.81;58.90
64886;BME280;51514;52.206;5.114;2023-08-30T00:19:33;100868.66;;;22.79;59.04
64886;BME280;51514;52.206;5.114;2023-08-30T00:21:58;100875.00;;;22.80;58.76
64886;BME280;51514;52.206;5.114;2023-08-30T00:24:23;100865.91;;;22.79;58.57
64886;BME280;51514;52.206;5.114;2023-08-30T00:26:49;100860.50;;;22.84;58.36
64886;BME280;51514;52.206;5.114;2023-08-30T00:29:14;100855.25;;;22.83;58.52
64886;BME280;51514;52.206;5.114;2023-08-30T00:31:39;100861.94;;;22.75;58.83
64886;BME280;51514;52.206;5.114;2023-08-30T00:34:05;100850.94;;;22.75;58.58
64886;BME280;51514;52.206;5.114;2023-08-30T00:36:30;100849.88;;;22.76;58.85
64886;BME280;51514;52.206;5.114;2023-08-30T00:38:56;100852.22;;;22.73;58.81
64886;BME280;51514;52.206;5.114;2023-08-30T00:41:21;100849.47;;;22.73;58.70
64886;BME280;51514;52.206;5.114;2023-08-30T00:43:46;100855.22;;;22.71;58.85
64886;BME280;51514;52.206;5.114;2023-08-30T00:46:13;100850.53;;;22.72;58.46
64886;BME280;51514;52.206;5.114;2023-08-30T00:48:38;100839.81;;;22.70;58.62
64886;BME280;51514;52.206;5.114;2023-08-30T00:51:04;100846.16;;;22.71;58.50
64886;BME280;51514;52.206;5.114;2023-08-30T00:53:30;100842.78;;;22.69;58.76
64886;BME280;51514;52.206;5.114;2023-08-30T00:55:55;100837.06;;;22.70;58.65
64886;BME280;51514;52.206;5.114;2023-08-30T00:58:20;100835.16;;;22.71;58.82
64886;BME280;51514;52.206;5.114;2023-08-30T01:00:46;100838.13;;;22.69;58.74
64886;BME280;51514;52.206;5.114;2023-08-30T01:03:12;100836.47;;;22.68;58.81
64886;BME280;51514;52.206;5.114;2023-08-30T01:05:38;100832.88;;;22.68;58.76
64886;BME280;51514;52.206;5.114;2023-08-30T01:08:04;100827.97;;;22.70;58.64
64886;BME280;51514;52.206;5.114;2023-08-30T01:10:41;100826.53;;;22.67;58.46
64886;BME280;51514;52.206;5.114;2023-08-30T01:13:12;100817.81;;;22.70;58.58
64886;BME280;51514;52.206;5.114;2023-08-30T01:15:42;100821.28;;;22.66;58.55
64886;BME280;51514;52.206;5.114;2023-08-30T01:18:08;100820.19;;;22.67;58.80
64886;BME280;51514;52.206;5.114;2023-08-30T01:20:38;100820.44;;;22.65;58.70
64886;BME280;51514;52.206;5.114;2023-08-30T01:26:07;100824.72;;;22.61;58.84
64886;BME280;51514;52.206;5.114;2023-08-30T01:28:35;100819.84;;;22.63;58.56
64886;BME280;51514;52.206;5.114;2023-08-30T01:31:03;100814.34;;;22.63;58.62
64886;BME280;51514;52.206;5.114;2023-08-30T01:33:30;100820.44;;;22.65;58.35
64886;BME280;51514;52.206;5.114;2023-08-30T01:35:59;100818.16;;;22.62;58.58
64886;BME280;51514;52.206;5.114;2023-08-30T01:38:26;100818.16;;;22.62;58.56
64886;BME280;51514;52.206;5.114;2023-08-30T01:40:53;100821.97;;;22.61;58.73
64886;BME280;51514;52.206;5.114;2023-08-30T01:43:20;100814.56;;;22.62;58.72
64886;BME280;51514;52.206;5.114;2023-08-30T01:45:47;100811.81;;;22.62;58.75
64886;BME280;51514;52.206;5.114;2023-08-30T01:48:16;100814.84;;;22.60;58.38
64886;BME280;51514;52.206;5.114;2023-08-30T01:50:43;100803.34;;;22.63;58.25
64886;BME280;51514;52.206;5.114;2023-08-30T01:53:12;100804.41;;;22.62;58.76
64886;BME280;51514;52.206;5.114;2023-08-30T01:55:38;100810.50;;;22.64;58.36
64886;BME280;51514;52.206;5.114;2023-08-30T01:58:05;100798.69;;;22.64;58.23
64886;BME280;51514;52.206;5.114;2023-08-30T02:00:30;100794.63;;;22.66;58.39
64886;BME280;51514;52.206;5.114;2023-08-30T02:02:56;100795.47;;;22.67;58.55
64886;BME280;51514;52.206;5.114;2023-08-30T02:05:22;100791.88;;;22.66;58.46
64886;BME280;51514;52.206;5.114;2023-08-30T02:08:09;100794.38;;;22.68;58.33
64886;BME280;51514;52.206;5.114;2023-08-30T02:10:41;100785.78;;;22.64;58.33
64886;BME280;51514;52.206;5.114;2023-08-30T02:13:07;100784.09;;;22.63;58.63
64886;BME280;51514;52.206;5.114;2023-08-30T02:15:35;100785.78;;;22.64;57.97
64886;BME280;51514;52.206;5.114;2023-08-30T02:18:04;100786.84;;;22.63;58.20
64886;BME280;51514;52.206;5.114;2023-08-30T02:20:30;100789.84;;;22.62;58.36
64886;BME280;51514;52.206;5.114;2023-08-30T02:22:59;100789.50;;;22.58;58.45
64886;BME280;51514;52.206;5.114;2023-08-30T02:25:25;100784.00;;;22.58;58.39
64886;BME280;51514;52.206;5.114;2023-08-30T02:27:51;100792.00;;;22.60;58.41
64886;BME280;51514;52.206;5.114;2023-08-30T02:30:16;100800.00;;;22.61;58.27
64886;BME280;51514;52.206;5.114;2023-08-30T02:32:41;100784.84;;;22.58;58.22
64886;BME280;51514;52.206;5.114;2023-08-30T02:35:07;100790.56;;;22.57;58.65
64886;BME280;51514;52.206;5.114;2023-08-30T02:37:32;100776.22;;;22.55;58.51
64886;BME280;51514;52.206;5.114;2023-08-30T02:39:58;100777.28;;;22.54;58.33
64886;BME280;51514;52.206;5.114;2023-08-30T02:42:23;100773.47;;;22.55;58.39
64886;BME280;51514;52.206;5.114;2023-08-30T02:44:49;100764.38;;;22.54;58.35
64886;BME280;51514;52.206;5.114;2023-08-30T02:47:15;100761.66;;;22.54;58.33
64886;BME280;51514;52.206;5.114;2023-08-30T02:49:40;100773.47;;;22.55;58.53
64886;BME280;51514;52.206;5.114;2023-08-30T02:52:06;100769.41;;;22.57;58.29
64886;BME280;51514;52.206;5.114;2023-08-30T02:54:31;100762.25;;;22.56;58.45
64886;BME280;51514;52.206;5.114;2023-08-30T02:56:56;100762.94;;;22.52;58.29
64886;BME280;51514;52.206;5.114;2023-08-30T02:59:22;100750.28;;;22.51;58.26
64886;BME280;51514;52.206;5.114;2023-08-30T03:01:47;100753.03;;;22.51;58.50
64886;BME280;51514;52.206;5.114;2023-08-30T03:04:13;100748.59;;;22.50;58.22
64886;BME280;51514;52.206;5.114;2023-08-30T03:06:38;100742.63;;;22.53;58.31
64886;BME280;51514;52.206;5.114;2023-08-30T03:09:03;100739.66;;;22.54;58.32
64886;BME280;51514;52.206;5.114;2023-08-30T03:11:31;100744.56;;;22.52;58.29
64886;BME280;51514;52.206;5.114;2023-08-30T03:13:57;100738.22;;;22.52;58.16
64886;BME280;51514;52.206;5.114;2023-08-30T03:16:22;100725.31;;;22.52;58.04
64886;BME280;51514;52.206;5.114;2023-08-30T03:18:48;100722.81;;;22.51;58.29
64886;BME280;51514;52.206;5.114;2023-08-30T03:21:14;100721.97;;;22.50;58.49
64886;BME280;51514;52.206;5.114;2023-08-30T03:23:40;100720.31;;;22.49;58.45
64886;BME280;51514;52.206;5.114;2023-08-30T03:28:35;100713.16;;;22.48;58.44
64886;BME280;51514;52.206;5.114;2023-08-30T03:31:00;100716.97;;;22.47;58.47
64886;BME280;51514;52.206;5.114;2023-08-30T03:33:25;100712.56;;;22.46;58.22
64886;BME280;51514;52.206;5.114;2023-08-30T03:35:51;100705.16;;;22.47;58.35
64886;BME280;51514;52.206;5.114;2023-08-30T03:38:16;100703.47;;;22.46;58.39
64886;BME280;51514;52.206;5.114;2023-08-30T03:40:41;100701.78;;;22.45;57.98
64886;BME280;51514;52.206;5.114;2023-08-30T03:43:07;100707.06;;;22.46;58.06
64886;BME280;51514;52.206;5.114;2023-08-30T03:45:36;100691.28;;;22.42;58.40
64886;BME280;51514;52.206;5.114;2023-08-30T03:48:02;100687.00;;;22.34;58.25
64886;BME280;51514;52.206;5.114;2023-08-30T03:50:27;100689.38;;;22.42;58.22
64886;BME280;51514;52.206;5.114;2023-08-30T03:52:52;100672.16;;;22.47;58.14
64886;BME280;51514;52.206;5.114;2023-08-30T03:55:18;100679.22;;;22.43;58.14
64886;BME280;51514;52.206;5.114;2023-08-30T03:57:43;100673.25;;;22.34;58.50
64886;BME280;51514;52.206;5.114;2023-08-30T04:00:09;100680.66;;;22.34;58.68
64886;BME280;51514;52.206;5.114;2023-08-30T04:02:36;100667.16;;;22.32;58.52
64886;BME280;51514;52.206;5.114;2023-08-30T04:05:01;100669.91;;;22.32;58.73
64886;BME280;51514;52.206;5.114;2023-08-30T04:07:26;100672.88;;;22.31;58.54
64886;BME280;51514;52.206;5.114;2023-08-30T04:09:52;100678.38;;;22.31;58.27
64886;BME280;51514;52.206;5.114;2023-08-30T04:12:17;100670.75;;;22.33;58.62
64886;BME280;51514;52.206;5.114;2023-08-30T04:14:42;100673.72;;;22.31;58.69
64886;BME280;51514;52.206;5.114;2023-08-30T04:17:08;100664.03;;;22.29;58.57
64886;BME280;51514;52.206;5.114;2023-08-30T04:19:33;100670.66;;;22.28;58.26
64886;BME280;51514;52.206;5.114;2023-08-30T04:21:58;100674.19;;;22.28;58.38
64886;BME280;51514;52.206;5.114;2023-08-30T04:24:24;100673.38;;;22.28;58.57
64886;BME280;51514;52.206;5.114;2023-08-30T04:26:49;100667.91;;;22.28;58.37
64886;BME280;51514;52.206;5.114;2023-08-30T04:29:17;100668.47;;;22.30;58.24
64886;BME280;51514;52.206;5.114;2023-08-30T04:31:43;100658.56;;;22.29;58.63
64886;BME280;51514;52.206;5.114;2023-08-30T04:34:08;100658.09;;;22.32;58.54
64886;BME280;51514;52.206;5.114;2023-08-30T04:36:34;100665.72;;;22.30;57.92
64886;BME280;51514;52.206;5.114;2023-08-30T04:38:59;100653.91;;;22.29;58.33
64886;BME280;51514;52.206;5.114;2023-08-30T04:41:25;100658.81;;;22.27;58.51
64886;BME280;51514;52.206;5.114;2023-08-30T04:43:50;100647.00;;;22.27;58.38
64886;BME280;51514;52.206;5.114;2023-08-30T04:46:15;100645.91;;;22.28;58.14
64886;BME280;51514;52.206;5.114;2023-08-30T04:48:41;100650.22;;;22.24;58.33
64886;BME280;51514;52.206;5.114;2023-08-30T04:51:06;100645.78;;;22.23;58.52
64886;BME280;51514;52.206;5.114;2023-08-30T04:53:31;100641.97;;;22.24;58.42
64886;BME280;51514;52.206;5.114;2023-08-30T04:55:57;100642.81;;;22.24;58.22
64886;BME280;51514;52.206;5.114;2023-08-30T04:58:22;100638.75;;;22.27;58.28
64886;BME280;51514;52.206;5.114;2023-08-30T05:00:47;100633.81;;;22.29;58.10
64886;BME280;51514;52.206;5.114;2023-08-30T05:03:13;100628.25;;;22.24;58.30
64886;BME280;51514;52.206;5.114;2023-08-30T05:05:38;100629.06;;;22.24;58.59
64886;BME280;51514;52.206;5.114;2023-08-30T05:08:04;100622.97;;;22.22;58.24
64886;BME280;51514;52.206;5.114;2023-08-30T05:10:29;100627.63;;;22.21;58.36
64886;BME280;51514;52.206;5.114;2023-08-30T05:12:55;100622.38;;;22.20;58.31
64886;BME280;51514;52.206;5.114;2023-08-30T05:15:20;100625.97;;;22.20;58.58
64886;BME280;51514;52.206;5.114;2023-08-30T05:17:46;100620.47;;;22.20;58.58
64886;BME280;51514;52.206;5.114;2023-08-30T05:20:12;100613.91;;;22.21;58.27
64886;BME280;51514;52.206;5.114;2023-08-30T05:22:37;100620.72;;;22.19;58.27
64886;BME280;51514;52.206;5.114;2023-08-30T05:25:03;100623.44;;;22.19;58.40
64886;BME280;51514;52.206;5.114;2023-08-30T05:27:29;100632.06;;;22.23;58.27
64886;BME280;51514;52.206;5.114;2023-08-30T05:29:55;100630.84;;;22.18;58.40
64886;BME280;51514;52.206;5.114;2023-08-30T05:32:21;100639.94;;;22.19;58.40
64886;BME280;51514;52.206;5.114;2023-08-30T05:34:47;100641.00;;;22.18;58.69
64886;BME280;51514;52.206;5.114;2023-08-30T05:37:12;100641.84;;;22.18;58.32
64886;BME280;51514;52.206;5.114;2023-08-30T05:39:37;100648.16;;;22.19;58.36
64886;BME280;51514;52.206;5.114;2023-08-30T05:42:03;100646.25;;;22.19;58.49
64886;BME280;51514;52.206;5.114;2023-08-30T05:44:29;100647.94;;;22.20;58.30
64886;BME280;51514;52.206;5.114;2023-08-30T05:46:54;100652.81;;;22.18;58.21
64886;BME280;51514;52.206;5.114;2023-08-30T05:49:19;100648.16;;;22.19;58.23
64886;BME280;51514;52.206;5.114;2023-08-30T05:51:45;100646.50;;;22.18;58.47
64886;BME280;51514;52.206;5.114;2023-08-30T05:54:10;100641.84;;;22.18;58.25
64886;BME280;51514;52.206;5.114;2023-08-30T05:56:35;100632.19;;;22.16;58.24
64886;BME280;51514;52.206;5.114;2023-08-30T05:59:01;100636.00;;;22.15;58.44
64886;BME280;51514;52.206;5.114;2023-08-30T06:01:26;100626.09;;;22.14;58.51
64886;BME280;51514;52.206;5.114;2023-08-30T06:03:52;100629.09;;;22.12;58.52
64886;BME280;51514;52.206;5.114;2023-08-30T06:06:17;100623.59;;;22.12;58.37
64886;BME280;51514;52.206;5.114;2023-08-30T06:08:43;100626.34;;;22.12;58.58
64886;BME280;51514;52.206;5.114;2023-08-30T06:11:08;100623.81;;;22.11;58.39
64886;BME280;51514;52.206;5.114;2023-08-30T06:13:34;100623.00;;;22.10;58.63
64886;BME280;51514;52.206;5.114;2023-08-30T06:15:59;100614.50;;;22.12;58.23
64886;BME280;51514;52.206;5.114;2023-08-30T06:18:29;100623.00;;;22.10;58.29
64886;BME280;51514;52.206;5.114;2023-08-30T06:20:55;100617.50;;;22.10;58.31
64886;BME280;51514;52.206;5.114;2023-08-30T06:23:20;100617.50;;;22.10;58.11
64886;BME280;51514;52.206;5.114;2023-08-30T06:25:53;100603.66;;;22.05;58.25
64886;BME280;51514;52.206;5.114;2023-08-30T06:28:19;100608.66;;;22.08;58.51
64886;BME280;51514;52.206;5.114;2023-08-30T06:30:44;100607.81;;;22.08;58.33
64886;BME280;51514;52.206;5.114;2023-08-30T06:33:10;100612.47;;;22.07;58.43
64886;BME280;51514;52.206;5.114;2023-08-30T06:35:36;100606.97;;;22.07;58.27
64886;BME280;51514;52.206;5.114;2023-08-30T06:38:04;100604.25;;;22.07;58.42
64886;BME280;51514;52.206;5.114;2023-08-30T06:40:29;100598.19;;;22.05;58.22
64886;BME280;51514;52.206;5.114;2023-08-30T06:42:55;100591.94;;;22.10;58.36
64886;BME280;51514;52.206;5.114;2023-08-30T06:45:20;100592.78;;;22.10;58.24
64886;BME280;51514;52.206;5.114;2023-08-30T06:47:48;100595.06;;;22.13;58.29
64886;BME280;51514;52.206;5.114;2023-08-30T06:50:13;100584.53;;;22.10;57.95
64886;BME280;51514;52.206;5.114;2023-08-30T06:52:38;100580.97;;;22.10;57.99
64886;BME280;51514;52.206;5.114;2023-08-30T06:55:04;100585.84;;;22.08;57.91
64886;BME280;51514;52.206;5.114;2023-08-30T06:57:29;100578.44;;;22.08;57.82
64886;BME280;51514;52.206;5.114;2023-08-30T06:59:55;100573.56;;;22.10;57.70
64886;BME280;51514;52.206;5.114;2023-08-30T07:02:20;100582.88;;;22.09;57.75
64886;BME280;51514;52.206;5.114;2023-08-30T07:04:46;100578.81;;;22.12;57.79
64886;BME280;51514;52.206;5.114;2023-08-30T07:07:12;100575.34;;;22.16;57.65
64886;BME280;51514;52.206;5.114;2023-08-30T07:09:37;100572.25;;;22.13;57.77
64886;BME280;51514;52.206;5.114;2023-08-30T07:12:03;100565.91;;;22.12;57.61
64886;BME280;51514;52.206;5.114;2023-08-30T07:14:29;100559.22;;;22.08;58.02
64886;BME280;51514;52.206;5.114;2023-08-30T07:16:54;100563.03;;;22.07;57.83
64886;BME280;51514;52.206;5.114;2023-08-30T07:19:19;100561.97;;;22.08;57.42
64886;BME280;51514;52.206;5.114;2023-08-30T07:21:45;100557.56;;;22.07;57.55
64886;BME280;51514;52.206;5.114;2023-08-30T07:24:10;100558.91;;;22.05;57.62
64886;BME280;51514;52.206;5.114;2023-08-30T07:26:36;100546.84;;;22.06;57.74
64886;BME280;51514;52.206;5.114;2023-08-30T07:29:02;100544.09;;;22.06;57.81
64886;BME280;51514;52.206;5.114;2023-08-30T07:31:30;100542.41;;;22.05;58.13
64886;BME280;51514;52.206;5.114;2023-08-30T07:33:56;100535.59;;;22.07;58.13
64886;BME280;51514;52.206;5.114;2023-08-30T07:36:23;100544.41;;;22.09;58.30
64886;BME280;51514;52.206;5.114;2023-08-30T07:38:48;100531.78;;;22.08;58.17
64886;BME280;51514;52.206;5.114;2023-08-30T07:41:14;100525.44;;;22.08;58.02
64886;BME280;51514;52.206;5.114;2023-08-30T07:43:39;100508.63;;;22.04;58.42
64886;BME280;51514;52.206;5.114;2023-08-30T07:46:04;100499.31;;;22.05;58.25
64886;BME280;51514;52.206;5.114;2023-08-30T07:48:30;100505.38;;;22.07;58.44
64886;BME280;51514;52.206;5.114;2023-08-30T07:50:55;100497.97;;;22.08;58.51
64886;BME280;51514;52.206;5.114;2023-08-30T07:53:20;100501.31;;;22.10;58.36
64886;BME280;51514;52.206;5.114;2023-08-30T07:55:49;100495.84;;;22.10;58.31
64886;BME280;51514;52.206;5.114;2023-08-30T07:58:15;100500.28;;;21.99;58.63
64886;BME280;51514;52.206;5.114;2023-08-30T08:00:40;100496.66;;;22.10;58.33
64886;BME280;51514;52.206;5.114;2023-08-30T08:03:06;100511.00;;;22.12;58.70
64886;BME280;51514;52.206;5.114;2023-08-30T08:05:31;100506.44;;;22.18;58.23
64886;BME280;51514;52.206;5.114;2023-08-30T08:08:00;100507.53;;;22.17;58.75
64886;BME280;51514;52.206;5.114;2023-08-30T08:10:26;100507.25;;;22.18;58.85
64886;BME280;51514;52.206;5.114;2023-08-30T08:12:52;100514.53;;;22.25;58.37
64886;BME280;51514;52.206;5.114;2023-08-30T08:15:17;100506.44;;;22.18;58.95
64886;BME280;51514;52.206;5.114;2023-08-30T08:17:42;100507.03;;;22.20;58.57
64886;BME280;51514;52.206;5.114;2023-08-30T08:20:08;100510.84;;;22.19;58.79
64886;BME280;51514;52.206;5.114;2023-08-30T08:22:34;100507.38;;;22.24;58.01
64886;BME280;51514;52.206;5.114;2023-08-30T08:24:59;100511.09;;;22.17;58.69
64886;BME280;51514;52.206;5.114;2023-08-30T08:27:24;100513.03;;;22.17;58.77
64886;BME280;51514;52.206;5.114;2023-08-30T08:29:50;100509.16;;;22.18;58.87
64886;BME280;51514;52.206;5.114;2023-08-30T08:32:16;100515.78;;;22.17;58.72
64886;BME280;51514;52.206;5.114;2023-08-30T08:34:41;100506.69;;;22.16;58.66
64886;BME280;51514;52.206;5.114;2023-08-30T08:37:06;100505.03;;;22.15;58.86
64886;BME280;51514;52.206;5.114;2023-08-30T08:39:32;100501.22;;;22.16;58.59
64886;BME280;51514;52.206;5.114;2023-08-30T08:41:59;100504.78;;;22.17;58.72
64886;BME280;51514;52.206;5.114;2023-08-30T08:44:26;100502.84;;;22.17;58.89
64886;BME280;51514;52.206;5.114;2023-08-30T08:46:54;100492.97;;;22.16;59.01
64886;BME280;51514;52.206;5.114;2023-08-30T08:49:19;100503.34;;;22.14;58.99
64886;BME280;51514;52.206;5.114;2023-08-30T08:51:45;100500.09;;;22.17;58.67
64886;BME280;51514;52.206;5.114;2023-08-30T08:54:11;100493.81;;;22.17;58.66
64886;BME280;51514;52.206;5.114;2023-08-30T08:56:37;100489.09;;;22.17;58.56
64886;BME280;51514;52.206;5.114;2023-08-30T08:59:06;100489.72;;;22.19;59.04
64886;BME280;51514;52.206;5.114;2023-08-30T09:01:34;100485.56;;;22.17;58.76
64886;BME280;51514;52.206;5.114;2023-08-30T09:04:04;100483.28;;;22.14;58.99
64886;BME280;51514;52.206;5.114;2023-08-30T09:06:30;100487.47;;;22.16;59.10
64886;BME280;51514;52.206;5.114;2023-08-30T09:08:55;100486.38;;;22.17;59.15
64886;BME280;51514;52.206;5.114;2023-08-30T09:11:21;100492.47;;;22.19;58.75
64886;BME280;51514;52.206;5.114;2023-08-30T09:13:46;100484.22;;;22.19;59.00
64886;BME280;51514;52.206;5.114;2023-08-30T09:16:13;100490.31;;;22.21;58.94
64886;BME280;51514;52.206;5.114;2023-08-30T09:18:39;100485.41;;;22.24;59.02
64886;BME280;51514;52.206;5.114;2023-08-30T09:21:11;100482.19;;;22.27;58.96
64886;BME280;51514;52.206;5.114;2023-08-30T09:23:36;100477.97;;;22.36;58.86
64886;BME280;51514;52.206;5.114;2023-08-30T09:26:03;100487.53;;;22.33;59.04
64886;BME280;51514;52.206;5.114;2023-08-30T09:28:29;100478.63;;;22.43;59.24
64886;BME280;51514;52.206;5.114;2023-08-30T09:30:57;100486.63;;;22.44;59.34
64886;BME280;51514;52.206;5.114;2023-08-30T09:33:32;100482.06;;;22.50;59.21
64886;BME280;51514;52.206;5.114;2023-08-30T09:35:58;100487.66;;;22.55;59.33
64886;BME280;51514;52.206;5.114;2023-08-30T09:38:24;100490.53;;;22.60;59.03
64886;BME280;51514;52.206;5.114;2023-08-30T09:40:50;100474.59;;;22.62;59.16
64886;BME280;51514;52.206;5.114;2023-08-30T09:43:20;100480.69;;;22.64;59.14
64886;BME280;51514;52.206;5.114;2023-08-30T09:45:47;100478.03;;;22.69;59.03
64886;BME280;51514;52.206;5.114;2023-08-30T09:48:13;100477.53;;;22.72;58.94
64886;BME280;51514;52.206;5.114;2023-08-30T09:50:41;100485.91;;;22.77;59.06
64886;BME280;51514;52.206;5.114;2023-08-30T09:53:08;100479.41;;;22.83;59.08
64886;BME280;51514;52.206;5.114;2023-08-30T09:56:11;100495.91;;;22.83;59.18
64886;BME280;51514;52.206;5.114;2023-08-30T09:58:38;100482.09;;;22.95;59.09
64886;BME280;51514;52.206;5.114;2023-08-30T10:01:06;100480.53;;;22.99;59.20
64886;BME280;51514;52.206;5.114;2023-08-30T10:03:32;100492.44;;;23.05;58.94
64886;BME280;51514;52.206;5.114;2023-08-30T10:05:59;100490.59;;;23.10;58.57
64886;BME280;51514;52.206;5.114;2023-08-30T10:08:29;100479.44;;;23.17;58.59
64886;BME280;51514;52.206;5.114;2023-08-30T10:10:58;100485.09;;;23.10;58.74
64886;BME280;51514;52.206;5.114;2023-08-30T10:13:24;100475.09;;;23.21;58.73
64886;BME280;51514;52.206;5.114;2023-08-30T10:15:53;100474.91;;;23.27;58.54
64886;BME280;51514;52.206;5.114;2023-08-30T10:18:22;100477.50;;;23.34;58.69
64886;BME280;51514;52.206;5.114;2023-08-30T10:20:47;100487.59;;;23.45;58.56
64886;BME280;51514;52.206;5.114;2023-08-30T10:23:16;100483.75;;;23.46;58.35
64886;BME280;51514;52.206;5.114;2023-08-30T10:25:43;100492.25;;;23.61;58.08
64886;BME280;51514;52.206;5.114;2023-08-30T10:28:10;100490.84;;;23.59;58.04
64886;BME280;51514;52.206;5.114;2023-08-30T10:30:36;100480.75;;;23.64;57.92
64886;BME280;51514;52.206;5.114;2023-08-30T10:33:02;100481.91;;;23.69;57.68
64886;BME280;51514;52.206;5.114;2023-08-30T10:35:28;100489.41;;;23.73;57.69
64886;BME280;51514;52.206;5.114;2023-08-30T10:37:59;100494.91;;;23.73;57.57
64886;BME280;51514;52.206;5.114;2023-08-30T10:40:24;100500.22;;;23.80;57.96
64886;BME280;51514;52.206;5.114;2023-08-30T10:43:03;100495.81;;;23.79;57.47
64886;BME280;51514;52.206;5.114;2023-08-30T10:45:28;100498.38;;;23.85;57.59
64886;BME280;51514;52.206;5.114;2023-08-30T10:47:56;100496.50;;;23.91;57.64
64886;BME280;51514;52.206;5.114;2023-08-30T10:50:30;100498.19;;;23.92;57.45
64886;BME280;51514;52.206;5.114;2023-08-30T10:53:12;100494.59;;;23.91;57.29
64886;BME280;51514;52.206;5.114;2023-08-30T10:56:03;100503.13;;;23.90;57.88
64886;BME280;51514;52.206;5.114;2023-08-30T10:58:43;100504.53;;;23.92;57.55
64886;BME280;51514;52.206;5.114;2023-08-30T11:01:11;100506.03;;;24.00;57.47
64886;BME280;51514;52.206;5.114;2023-08-30T11:03:39;100507.38;;;23.97;57.58
64886;BME280;51514;52.206;5.114;2023-08-30T11:06:05;100513.47;;;23.99;57.72
64886;BME280;51514;52.206;5.114;2023-08-30T11:08:31;100516.75;;;24.01;57.53
64886;BME280;51514;52.206;5.114;2023-08-30T11:11:07;100516.13;;;23.94;57.84
64886;BME280;51514;52.206;5.114;2023-08-30T11:13:34;100519.78;;;24.00;57.65
64886;BME280;51514;52.206;5.114;2023-08-30T11:16:03;100515.38;;;23.99;57.35
64886;BME280;51514;52.206;5.114;2023-08-30T11:18:37;100510.94;;;23.98;56.05
64886;BME280;51514;52.206;5.114;2023-08-30T11:21:05;100522.56;;;24.00;56.70
64886;BME280;51514;52.206;5.114;2023-08-30T11:23:31;100511.41;;;23.90;57.23
64886;BME280;51514;52.206;5.114;2023-08-30T11:25:56;100526.25;;;23.89;57.01
64886;BME280;51514;52.206;5.114;2023-08-30T11:28:25;100520.75;;;23.89;57.03
64886;BME280;51514;52.206;5.114;2023-08-30T11:30:54;100530.94;;;23.88;57.06
64886;BME280;51514;52.206;5.114;2023-08-30T11:33:20;100526.41;;;23.82;57.55
64886;BME280;51514;52.206;5.114;2023-08-30T11:35:49;100529.56;;;23.91;57.27
64886;BME280;51514;52.206;5.114;2023-08-30T11:38:15;100532.97;;;23.98;56.71
64886;BME280;51514;52.206;5.114;2023-08-30T11:40:40;100527.66;;;23.91;57.08
64886;BME280;51514;52.206;5.114;2023-08-30T11:43:06;100523.50;;;23.89;57.18
64886;BME280;51514;52.206;5.114;2023-08-30T11:45:32;100517.41;;;23.87;57.31
64886;BME280;51514;52.206;5.114;2023-08-30T11:48:00;100514.41;;;23.88;57.14
64886;BME280;51514;52.206;5.114;2023-08-30T11:50:26;100521.31;;;23.91;57.18
64886;BME280;51514;52.206;5.114;2023-08-30T11:52:52;100517.22;;;23.93;57.14
64886;BME280;51514;52.206;5.114;2023-08-30T11:55:22;100520.22;;;23.92;57.18
64886;BME280;51514;52.206;5.114;2023-08-30T11:57:49;100519.13;;;23.93;57.14
64886;BME280;51514;52.206;5.114;2023-08-30T12:00:18;100518.53;;;23.91;57.28
64886;BME280;51514;52.206;5.114;2023-08-30T12:02:45;100522.41;;;23.90;57.55
64886;BME280;51514;52.206;5.114;2023-08-30T12:05:15;100522.13;;;23.91;57.36
64886;BME280;51514;52.206;5.114;2023-08-30T12:07:41;100525.72;;;23.92;57.46
64886;BME280;51514;52.206;5.114;2023-08-30T12:10:11;100523.22;;;23.90;57.30
64886;BME280;51514;52.206;5.114;2023-08-30T12:12:36;100522.13;;;23.91;57.60
64886;BME280;51514;52.206;5.114;2023-08-30T12:15:12;100533.69;;;23.88;57.48
64886;BME280;51514;52.206;5.114;2023-08-30T12:17:38;100530.41;;;23.91;57.69
64886;BME280;51514;52.206;5.114;2023-08-30T12:20:04;100545.00;;;23.92;57.35
64886;BME280;51514;52.206;5.114;2023-08-30T12:22:39;100540.56;;;23.91;57.50
64886;BME280;51514;52.206;5.114;2023-08-30T12:25:15;100540.56;;;23.91;57.82
64886;BME280;51514;52.206;5.114;2023-08-30T12:27:41;100540.06;;;23.94;57.79
64886;BME280;51514;52.206;5.114;2023-08-30T12:30:07;100539.25;;;23.93;57.10
64886;BME280;51514;52.206;5.114;2023-08-30T12:32:33;100543.88;;;23.88;55.60
64886;BME280;51514;52.206;5.114;2023-08-30T12:34:58;100545.44;;;23.84;55.17
64886;BME280;51514;52.206;5.114;2023-08-30T12:37:24;100533.84;;;23.82;56.20
64886;BME280;51514;52.206;5.114;2023-08-30T12:39:49;100546.88;;;23.86;57.01
64886;BME280;51514;52.206;5.114;2023-08-30T12:42:15;100544.13;;;23.86;56.71
64886;BME280;51514;52.206;5.114;2023-08-30T12:44:40;100547.44;;;23.88;57.65
64886;BME280;51514;52.206;5.114;2023-08-30T12:47:05;100551.88;;;23.89;57.49
64886;BME280;51514;52.206;5.114;2023-08-30T12:49:31;100556.56;;;23.89;57.85
64886;BME280;51514;52.206;5.114;2023-08-30T12:51:56;100553.50;;;23.90;57.60